Time;durP1;ratioP1;P1;durP2;ratioP2;P2;SDS_P1;SDS_P2;PMS_P1;PMS_P2;Temp;Humidity;BMP_temperature;BMP_pressure;BME280_temperature;BME280_humidity;BME280_pressure;Samples;Min_cycle;Max_cycle;Signal;HPM_P1;HPM_P2
2023/08/11 00:00:52;;;;;;;16.52;7.47;;;20.60;99.90;;;;;;5051069;28;20017;-59
2023/08/11 00:03:17;;;;;;;21.40;7.75;;;20.50;99.90;;;;;;5051002;28;20029;-58
2023/08/11 00:05:43;;;;;;;17.83;7.03;;;20.50;99.90;;;;;;5050797;28;20033;-58
2023/08/11 00:08:09;;;;;;;19.58;7.57;;;20.50;99.90;;;;;;5050712;28;20025;-58
2023/08/11 00:10:35;;;;;;;17.05;7.90;;;20.50;99.90;;;;;;5051008;28;20090;-59
2023/08/11 00:13:02;;;;;;;19.27;7.60;;;20.40;99.90;;;;;;5050845;28;20055;-59
2023/08/11 00:15:28;;;;;;;19.63;8.30;;;20.10;99.90;;;;;;5049018;28;20029;-59
2023/08/11 00:18:00;;;;;;;16.88;7.53;;;20.00;99.90;;;;;;5051168;28;20021;-59
2023/08/11 00:20:27;;;;;;;17.30;7.40;;;19.80;99.90;;;;;;5050797;28;20029;-59
2023/08/11 00:22:53;;;;;;;19.65;7.97;;;19.70;99.90;;;;;;5050663;28;20029;-59
2023/08/11 00:25:18;;;;;;;18.88;7.88;;;19.60;99.90;;;;;;5050490;28;20518;-59
2023/08/11 00:27:44;;;;;;;15.48;7.97;;;19.50;99.90;;;;;;5050331;28;20132;-58
2023/08/11 00:30:10;;;;;;;17.38;8.23;;;19.50;99.90;;;;;;5054373;28;20021;-59
2023/08/11 00:32:36;;;;;;;21.75;8.70;;;19.40;99.90;;;;;;5054460;28;20516;-59
2023/08/11 00:35:02;;;;;;;20.38;8.52;;;19.40;99.90;;;;;;5054337;28;20025;-59
2023/08/11 00:37:28;;;;;;;20.27;9.02;;;19.30;99.90;;;;;;5054249;28;20021;-59
2023/08/11 00:39:53;;;;;;;22.58;9.50;;;19.30;99.90;;;;;;5054088;28;20032;-58
2023/08/11 00:42:20;;;;;;;16.63;8.68;;;19.30;99.90;;;;;;5054216;28;20021;-59
2023/08/11 00:44:46;;;;;;;19.17;9.48;;;19.30;99.90;;;;;;5054222;28;20371;-60
2023/08/11 00:47:11;;;;;;;21.30;9.52;;;19.20;99.90;;;;;;5054061;28;20044;-59
2023/08/11 00:49:37;;;;;;;20.48;9.50;;;19.30;99.90;;;;;;5054093;28;20382;-59
2023/08/11 00:52:04;;;;;;;20.35;9.68;;;19.30;99.90;;;;;;5054300;28;20040;-58
2023/08/11 00:54:30;;;;;;;18.17;8.82;;;19.20;99.90;;;;;;5054296;28;20386;-59
2023/08/11 00:56:56;;;;;;;18.65;8.65;;;19.20;99.90;;;;;;5053707;28;20036;-58
2023/08/11 00:59:23;;;;;;;16.40;8.18;;;19.30;99.90;;;;;;5053956;28;20028;-58
2023/08/11 01:01:48;;;;;;;19.15;7.97;;;19.50;99.90;;;;;;5054280;28;20017;-58
2023/08/11 01:04:14;;;;;;;18.52;8.07;;;19.70;99.90;;;;;;5053784;28;20033;-59
2023/08/11 01:06:46;;;;;;;18.75;7.85;;;19.80;99.90;;;;;;5053739;28;20568;-59
2023/08/11 01:09:18;;;;;;;20.45;8.95;;;19.90;99.90;;;;;;5053700;28;20021;-59
2023/08/11 01:12:20;;;;;;;16.70;8.20;;;19.90;99.90;;;;;;5053342;28;20021;-59
2023/08/11 01:14:49;;;;;;;16.30;8.02;;;19.90;99.90;;;;;;5053507;28;20036;-58
2023/08/11 01:17:17;;;;;;;17.20;8.02;;;19.90;99.90;;;;;;5053735;28;20032;-58
2023/08/11 01:19:43;;;;;;;17.17;7.93;;;19.90;99.90;;;;;;5053383;28;20104;-59
2023/08/11 01:22:16;;;;;;;16.40;7.60;;;19.90;99.90;;;;;;5053733;28;20056;-59
2023/08/11 01:24:44;;;;;;;16.05;7.43;;;19.90;99.90;;;;;;5053720;28;20036;-59
2023/08/11 01:27:11;;;;;;;16.70;8.15;;;19.90;99.90;;;;;;5052849;28;20045;-59
2023/08/11 01:29:37;;;;;;;19.27;8.63;;;19.80;99.90;;;;;;5053721;28;20021;-59
2023/08/11 01:32:04;;;;;;;17.50;8.35;;;19.60;99.90;;;;;;5051938;28;20433;-59
2023/08/11 01:34:29;;;;;;;15.98;8.20;;;19.40;99.90;;;;;;5053314;28;20486;-59
2023/08/11 01:37:00;;;;;;;19.65;9.13;;;19.30;99.90;;;;;;5053144;28;20029;-59
2023/08/11 01:39:26;;;;;;;18.60;8.45;;;19.10;99.90;;;;;;5053051;28;20047;-59
2023/08/11 01:41:52;;;;;;;17.15;8.45;;;19.00;99.90;;;;;;5052467;28;20032;-58
2023/08/11 01:44:19;;;;;;;18.88;9.68;;;19.00;99.90;;;;;;5053066;28;20029;-59
2023/08/11 01:46:45;;;;;;;20.02;8.88;;;18.90;99.90;;;;;;5052806;28;20067;-59
2023/08/11 01:49:12;;;;;;;16.90;8.30;;;18.90;99.90;;;;;;5053316;28;20099;-59
2023/08/11 01:51:39;;;;;;;24.55;9.90;;;18.90;99.90;;;;;;5052887;28;20417;-59
2023/08/11 01:54:05;;;;;;;17.55;8.90;;;18.80;99.90;;;;;;5052730;28;20036;-59
2023/08/11 01:56:31;;;;;;;18.33;9.02;;;18.80;99.90;;;;;;5052588;28;20498;-58
2023/08/11 01:58:57;;;;;;;21.20;9.85;;;18.80;99.90;;;;;;5052572;28;20037;-57
2023/08/11 02:01:23;;;;;;;20.95;9.55;;;18.80;99.90;;;;;;5052776;28;20096;-59
2023/08/11 02:03:49;;;;;;;17.75;8.60;;;18.80;99.90;;;;;;5052695;28;20032;-59
2023/08/11 02:06:15;;;;;;;21.85;9.13;;;18.70;99.90;;;;;;5052874;28;20533;-59
2023/08/11 02:08:41;;;;;;;17.52;9.00;;;18.70;99.90;;;;;;5052657;28;20021;-59
2023/08/11 02:11:08;;;;;;;17.02;8.43;;;18.70;99.90;;;;;;5052333;28;20032;-59
2023/08/11 02:13:34;;;;;;;17.23;8.18;;;18.70;99.90;;;;;;5052297;28;20040;-59
2023/08/11 02:16:00;;;;;;;17.17;8.27;;;18.60;99.90;;;;;;5052766;28;20033;-59
2023/08/11 02:18:25;;;;;;;14.75;8.10;;;18.80;99.90;;;;;;5052324;28;20033;-59
2023/08/11 02:20:51;;;;;;;15.40;7.90;;;19.00;99.90;;;;;;5052327;28;20035;-59
2023/08/11 02:23:18;;;;;;;16.52;8.02;;;19.10;99.90;;;;;;5052271;28;20043;-58
2023/08/11 02:25:43;;;;;;;15.05;7.93;;;19.20;99.90;;;;;;5051716;28;20076;-59
2023/08/11 02:28:09;;;;;;;15.05;7.50;;;19.20;99.90;;;;;;5052438;28;20064;-62
2023/08/11 02:30:35;;;;;;;13.70;7.78;;;19.30;99.90;;;;;;5052217;28;20036;-61
2023/08/11 02:33:01;;;;;;;13.40;7.00;;;19.30;99.90;;;;;;5051988;28;20043;-61
2023/08/11 02:35:27;;;;;;;12.50;6.82;;;19.30;99.90;;;;;;5052059;28;20021;-61
2023/08/11 02:37:52;;;;;;;16.92;7.70;;;19.30;99.90;;;;;;5052375;28;20025;-61
2023/08/11 02:40:21;;;;;;;17.67;7.47;;;19.20;99.90;;;;;;5051802;28;20450;-61
2023/08/11 02:42:54;;;;;;;13.68;7.30;;;19.20;99.90;;;;;;5051980;28;20024;-60
2023/08/11 02:45:20;;;;;;;;;;;19.20;99.90;;;;;;5052376;28;20028;-62
2023/08/11 02:47:46;;;;;;;15.40;7.60;;;19.10;99.90;;;;;;5051730;28;19913;-58
2023/08/11 02:50:13;;;;;;;16.63;8.00;;;18.90;99.90;;;;;;5051620;28;20048;-59
2023/08/11 02:52:39;;;;;;;18.90;7.85;;;18.70;99.90;;;;;;5049770;28;20405;-59
2023/08/11 02:55:06;;;;;;;16.13;7.80;;;18.60;99.90;;;;;;5051892;28;20032;-59
2023/08/11 02:57:32;;;;;;;17.10;7.57;;;18.50;99.90;;;;;;5051889;28;20021;-59
2023/08/11 02:59:58;;;;;;;16.65;8.02;;;18.40;99.90;;;;;;5051542;28;20021;-59
2023/08/11 03:02:24;;;;;;;14.27;8.38;;;18.30;99.90;;;;;;5051643;28;20039;-58
2023/08/11 03:04:49;;;;;;;15.70;8.15;;;18.20;99.90;;;;;;5051440;28;20175;-59
2023/08/11 03:07:16;;;;;;;16.13;8.07;;;18.20;99.90;;;;;;5051167;28;20041;-59
2023/08/11 03:09:43;;;;;;;15.48;8.70;;;18.20;99.90;;;;;;5051423;28;20120;-59
2023/08/11 03:12:09;;;;;;;12.18;8.43;;;18.20;99.90;;;;;;5051703;28;20036;-59
2023/08/11 03:14:36;;;;;;;14.93;8.52;;;18.10;99.90;;;;;;5051290;28;20041;-59
2023/08/11 03:17:06;;;;;;;13.98;8.32;;;18.10;99.90;;;;;;5050127;28;20111;-59
2023/08/11 03:19:32;;;;;;;16.20;8.27;;;18.10;99.90;;;;;;5051078;28;20486;-59
2023/08/11 03:21:58;;;;;;;17.08;8.50;;;18.00;99.90;;;;;;5051010;28;20033;-59
2023/08/11 03:24:24;;;;;;;15.20;7.93;;;18.00;99.90;;;;;;5051483;28;20051;-59
2023/08/11 03:26:50;;;;;;;15.48;7.97;;;18.10;99.90;;;;;;5051177;28;20032;-59
2023/08/11 03:29:15;;;;;;;16.23;8.35;;;18.10;99.90;;;;;;5051309;28;20053;-59
2023/08/11 03:31:41;;;;;;;12.50;7.43;;;18.10;99.90;;;;;;5051123;28;20095;-59
2023/08/11 03:34:07;;;;;;;12.95;6.75;;;18.10;99.90;;;;;;5051419;28;20104;-59
2023/08/11 03:36:33;;;;;;;11.60;7.00;;;18.40;99.90;;;;;;5050756;28;20559;-59
2023/08/11 03:38:59;;;;;;;12.45;7.00;;;18.50;99.90;;;;;;5051057;28;20032;-59
2023/08/11 03:41:25;;;;;;;13.25;6.30;;;18.80;99.90;;;;;;5051056;28;20039;-59
2023/08/11 03:43:51;;;;;;;9.77;5.85;;;18.90;99.90;;;;;;5051020;28;20021;-59
2023/08/11 03:46:17;;;;;;;10.35;6.25;;;19.00;99.90;;;;;;5051081;28;20036;-59
2023/08/11 03:48:42;;;;;;;12.43;5.97;;;19.10;99.90;;;;;;5051031;28;20537;-59
2023/08/11 03:51:08;;;;;;;10.45;5.88;;;19.00;99.90;;;;;;5050718;28;20513;-59
2023/08/11 03:53:36;;;;;;;8.40;5.65;;;18.90;99.90;;;;;;5051069;28;20429;-59
2023/08/11 03:56:07;;;;;;;8.68;5.15;;;18.90;99.90;;;;;;5050908;28;20396;-59
2023/08/11 03:58:36;;;;;;;8.88;5.35;;;18.90;99.90;;;;;;5051551;28;20025;-59
2023/08/11 04:01:03;;;;;;;9.05;5.00;;;18.90;99.90;;;;;;5050623;28;20037;-59
2023/08/11 04:03:30;;;;;;;7.45;5.15;;;19.00;99.90;;;;;;5051954;28;20505;-59
2023/08/11 04:05:57;;;;;;;8.45;5.30;;;18.80;99.90;;;;;;5054524;28;20517;-59
2023/08/11 04:08:24;;;;;;;7.63;5.50;;;18.50;99.90;;;;;;5055234;28;20028;-59
2023/08/11 04:10:49;;;;;;;8.52;5.20;;;18.40;99.90;;;;;;5054694;28;20032;-59
2023/08/11 04:13:15;;;;;;;9.35;5.53;;;18.40;99.90;;;;;;5054680;28;20033;-59
2023/08/11 04:15:40;;;;;;;8.80;5.45;;;18.30;99.90;;;;;;5053850;28;20025;-59
2023/08/11 04:18:06;;;;;;;8.90;5.53;;;18.20;99.90;;;;;;5054506;28;20033;-59
2023/08/11 04:20:33;;;;;;;8.00;5.10;;;18.20;99.90;;;;;;5054161;28;20017;-59
2023/08/11 04:22:59;;;;;;;7.07;5.03;;;18.20;99.90;;;;;;5054643;28;20033;-59
2023/08/11 04:25:24;;;;;;;9.10;5.10;;;18.20;99.90;;;;;;5054407;28;20150;-59
2023/08/11 04:27:50;;;;;;;8.77;5.70;;;18.20;99.90;;;;;;5055029;28;20079;-59
2023/08/11 04:30:16;;;;;;;8.75;5.32;;;18.20;99.90;;;;;;5054577;28;20025;-59
2023/08/11 04:32:43;;;;;;;9.13;5.30;;;18.20;99.90;;;;;;5054457;28;20033;-59
2023/08/11 04:35:09;;;;;;;8.40;5.10;;;18.20;99.90;;;;;;5053999;28;20044;-59
2023/08/11 04:37:34;;;;;;;8.13;5.28;;;18.20;99.90;;;;;;5054477;28;20040;-59
2023/08/11 04:40:03;;;;;;;7.18;5.30;;;18.20;99.90;;;;;;5054240;28;20033;-59
2023/08/11 04:42:28;;;;;;;7.53;5.53;;;18.10;99.90;;;;;;5054604;28;20025;-59
2023/08/11 04:44:55;;;;;;;7.30;5.63;;;18.10;99.90;;;;;;5054153;28;20021;-59
2023/08/11 04:47:21;;;;;;;8.70;5.72;;;18.10;99.90;;;;;;5054006;28;20167;-58
2023/08/11 04:49:46;;;;;;;8.65;5.93;;;18.10;99.90;;;;;;5054066;28;20052;-59
2023/08/11 04:52:12;;;;;;;7.68;5.95;;;18.20;99.90;;;;;;5054197;28;20033;-59
2023/08/11 04:54:38;;;;;;;7.80;5.82;;;18.40;99.90;;;;;;5054295;28;20028;-59
2023/08/11 04:57:04;;;;;;;8.60;6.35;;;18.50;99.90;;;;;;5053948;28;20398;-59
2023/08/11 04:59:29;;;;;;;8.25;6.20;;;18.50;99.90;;;;;;5053899;28;20048;-59
2023/08/11 05:01:55;;;;;;;8.25;5.78;;;18.50;99.90;;;;;;5054081;28;20111;-58
2023/08/11 05:04:21;;;;;;;8.38;5.57;;;18.50;99.90;;;;;;5053483;28;20071;-59
2023/08/11 05:06:47;;;;;;;8.77;5.90;;;18.50;99.90;;;;;;5053716;28;20049;-59
2023/08/11 05:09:13;;;;;;;8.55;6.10;;;18.50;99.90;;;;;;5054075;28;20025;-58
2023/08/11 05:11:39;;;;;;;9.20;5.60;;;18.60;99.90;;;;;;5053627;28;20055;-60
2023/08/11 05:14:04;;;;;;;7.93;5.97;;;18.50;99.90;;;;;;5053466;28;20138;-58
2023/08/11 05:16:30;;;;;;;7.63;6.07;;;18.50;99.90;;;;;;5052546;28;20039;-59
2023/08/11 05:18:56;;;;;;;8.57;6.50;;;18.50;99.90;;;;;;5053066;28;20028;-58
2023/08/11 05:21:21;;;;;;;10.10;6.50;;;18.40;99.90;;;;;;5053748;28;20056;-62
2023/08/11 05:23:47;;;;;;;8.30;6.18;;;18.20;99.90;;;;;;5053617;28;20508;-61
2023/08/11 05:26:13;;;;;;;9.07;6.60;;;18.00;99.90;;;;;;5053134;28;20059;-59
2023/08/11 05:28:38;;;;;;;8.75;5.90;;;17.80;99.90;;;;;;5053526;28;20056;-59
2023/08/11 05:31:04;;;;;;;7.18;6.32;;;17.80;99.90;;;;;;5053400;28;20148;-60
2023/08/11 05:33:30;;;;;;;7.72;6.20;;;17.70;99.90;;;;;;5053130;28;20025;-59
2023/08/11 05:35:56;;;;;;;8.02;6.28;;;17.70;99.90;;;;;;5053145;28;20029;-59
2023/08/11 05:38:22;;;;;;;7.10;6.40;;;17.70;99.90;;;;;;5053200;28;20082;-59
2023/08/11 05:40:49;;;;;;;9.90;6.90;;;17.60;99.90;;;;;;5053057;28;20055;-59
2023/08/11 05:43:15;;;;;;;9.25;7.10;;;17.60;99.90;;;;;;5052018;28;20086;-59
2023/08/11 05:45:41;;;;;;;7.68;6.78;;;17.50;99.90;;;;;;5053101;28;20127;-59
2023/08/11 05:48:07;;;;;;;7.15;6.40;;;17.50;99.90;;;;;;5052830;28;20025;-59
2023/08/11 05:50:32;;;;;;;7.18;6.13;;;17.60;99.90;;;;;;5052975;28;20543;-59
2023/08/11 05:52:58;;;;;;;6.82;6.20;;;17.60;99.90;;;;;;5052964;28;20497;-59
2023/08/11 05:55:24;;;;;;;8.88;6.80;;;17.60;99.90;;;;;;5052998;28;20025;-59
2023/08/11 05:57:49;;;;;;;7.70;6.80;;;17.60;99.90;;;;;;5052953;28;20394;-59
2023/08/11 06:00:17;;;;;;;7.28;6.57;;;17.50;99.90;;;;;;5052570;28;20033;-59
2023/08/11 06:02:43;;;;;;;6.80;6.20;;;17.70;99.90;;;;;;5052660;28;20017;-59
2023/08/11 06:05:09;;;;;;;9.52;6.35;;;17.70;99.90;;;;;;5052874;28;20171;-59
2023/08/11 06:07:35;;;;;;;6.53;5.90;;;17.90;99.90;;;;;;5052580;28;20040;-59
2023/08/11 06:10:01;;;;;;;6.03;5.43;;;18.20;99.90;;;;;;5052633;28;20029;-59
2023/08/11 06:12:26;;;;;;;6.10;5.50;;;18.40;99.90;;;;;;5052887;28;20052;-59
2023/08/11 06:14:52;;;;;;;6.82;5.57;;;18.60;99.90;;;;;;5052212;28;20025;-59
2023/08/11 06:17:18;;;;;;;6.00;5.40;;;18.70;99.90;;;;;;5052251;28;20104;-59
2023/08/11 06:19:43;;;;;;;7.05;5.30;;;18.80;99.90;;;;;;5052176;28;20104;-59
2023/08/11 06:22:09;;;;;;;6.40;5.25;;;18.90;99.90;;;;;;5052350;28;20032;-59
2023/08/11 06:24:35;;;;;;;6.80;5.68;;;18.90;99.90;;;;;;5052622;28;20045;-60
2023/08/11 06:27:01;;;;;;;7.85;5.20;;;19.00;99.90;;;;;;5052135;28;20123;-59
2023/08/11 06:29:27;;;;;;;6.78;5.70;;;19.10;99.90;;;;;;5052105;28;20029;-59
2023/08/11 06:31:52;;;;;;;8.05;5.85;;;19.00;99.90;;;;;;5052344;28;20078;-59
2023/08/11 06:34:18;;;;;;;8.35;5.50;;;19.10;99.90;;;;;;5052123;28;20017;-60
2023/08/11 06:36:47;;;;;;;10.68;5.38;;;19.10;99.90;;;;;;5052093;28;20610;-59
2023/08/11 06:39:14;;;;;;;9.10;5.45;;;19.00;99.90;;;;;;5051993;28;20512;-59
2023/08/11 06:41:40;;;;;;;8.50;5.28;;;19.00;99.90;;;;;;5051997;28;20044;-59
2023/08/11 06:44:06;;;;;;;8.20;5.30;;;19.00;99.90;;;;;;5051902;28;20025;-59
2023/08/11 06:46:32;;;;;;;7.72;5.13;;;19.10;99.90;;;;;;5051644;28;20112;-61
2023/08/11 06:48:58;;;;;;;9.45;5.10;;;19.20;99.90;;;;;;5051790;28;20101;-61
2023/08/11 06:51:23;;;;;;;6.93;4.78;;;19.30;99.90;;;;;;5051915;28;20099;-61
2023/08/11 06:53:49;;;;;;;7.43;4.85;;;19.40;99.90;;;;;;5052174;28;20109;-61
2023/08/11 06:56:15;;;;;;;8.63;4.70;;;19.40;99.90;;;;;;5051534;28;20494;-61
2023/08/11 06:58:40;;;;;;;12.52;5.07;;;19.40;99.90;;;;;;5051588;28;20394;-61
2023/08/11 07:01:06;;;;;;;9.85;5.93;;;19.40;99.90;;;;;;5051759;28;20025;-61
2023/08/11 07:03:33;;;;;;;11.90;5.68;;;19.40;99.90;;;;;;5051602;28;20021;-62
2023/08/11 07:06:02;;;;;;;10.38;5.55;;;19.30;99.90;;;;;;5051521;28;20028;-62
2023/08/11 07:08:29;;;;;;;7.28;4.65;;;19.40;99.90;;;;;;5051567;28;20074;-60
2023/08/11 07:10:55;;;;;;;10.05;5.35;;;19.50;99.90;;;;;;5051824;28;20069;-62
2023/08/11 07:13:21;;;;;;;11.52;5.70;;;19.50;99.90;;;;;;5051390;28;20090;-62
2023/08/11 07:15:47;;;;;;;12.05;5.95;;;19.60;99.90;;;;;;5051137;28;20183;-62
2023/08/11 07:18:14;;;;;;;12.68;6.40;;;19.60;99.90;;;;;;5051415;28;20096;-62
2023/08/11 07:20:43;;;;;;;10.38;6.00;;;19.60;99.90;;;;;;5051329;28;20490;-61
2023/08/11 07:23:10;;;;;;;11.15;6.30;;;19.60;99.90;;;;;;5051303;28;20025;-62
2023/08/11 07:25:35;;;;;;;8.88;5.32;;;19.80;99.90;;;;;;5051409;28;20084;-61
2023/08/11 07:28:02;;;;;;;10.55;5.93;;;20.00;99.90;;;;;;5051071;28;20129;-61
2023/08/11 07:30:30;;;;;;;10.45;6.03;;;20.10;99.90;;;;;;5050809;28;20086;-61
2023/08/11 07:33:00;;;;;;;11.02;6.03;;;20.20;99.90;;;;;;5051185;28;20100;-62
2023/08/11 07:35:26;;;;;;;10.68;5.68;;;20.30;99.90;;;;;;5051154;28;20021;-61
2023/08/11 07:37:52;;;;;;;11.05;5.78;;;20.30;99.90;;;;;;5050923;28;20155;-62
2023/08/11 07:40:18;;;;;;;10.68;6.03;;;20.50;99.90;;;;;;5051177;28;20032;-62
2023/08/11 07:42:43;;;;;;;12.93;5.82;;;20.60;99.90;;;;;;5050837;28;20013;-60
2023/08/11 07:45:10;;;;;;;14.07;6.25;;;20.60;99.90;;;;;;5051117;28;20035;-61
2023/08/11 07:47:36;;;;;;;13.98;6.47;;;20.70;99.90;;;;;;5049435;28;20060;-62
2023/08/11 07:50:02;;;;;;;15.27;6.28;;;20.80;99.90;;;;;;5051013;28;20418;-62
2023/08/11 07:52:28;;;;;;;12.43;5.57;;;20.80;99.90;;;;;;5051525;28;20029;-62
2023/08/11 07:54:53;;;;;;;11.73;5.97;;;20.90;99.90;;;;;;5050865;28;20029;-62
2023/08/11 07:57:19;;;;;;;12.90;5.82;;;20.90;99.90;;;;;;5050625;28;20025;-59
2023/08/11 07:59:45;;;;;;;10.25;5.70;;;21.00;99.90;;;;;;5050850;28;20116;-59
2023/08/11 08:02:13;;;;;;;13.30;5.70;;;21.00;99.90;;;;;;5051230;28;20573;-59
2023/08/11 08:04:38;;;;;;;11.23;5.55;;;21.00;99.90;;;;;;5050932;28;20021;-59
2023/08/11 08:07:04;;;;;;;12.18;5.40;;;20.90;99.90;;;;;;5050872;28;20128;-59
2023/08/11 08:09:33;;;;;;;14.20;5.93;;;20.90;99.90;;;;;;5050852;28;20031;-59
2023/08/11 08:12:00;;;;;;;14.00;5.53;;;20.90;99.90;;;;;;5050367;28;20465;-59
2023/08/11 08:14:26;;;;;;;17.05;5.93;;;20.90;99.90;;;;;;5050682;28;20039;-59
2023/08/11 08:16:51;;;;;;;12.60;5.50;;;20.90;99.90;;;;;;5050735;28;20021;-59
2023/08/11 08:19:18;;;;;;;16.73;5.97;;;21.10;99.90;;;;;;5051058;28;20062;-59
2023/08/11 08:21:46;;;;;;;15.73;5.93;;;21.20;99.90;;;;;;5050787;28;20031;-59
2023/08/11 08:24:14;;;;;;;14.77;6.38;;;21.30;99.90;;;;;;5050591;28;20490;-59
2023/08/11 08:26:40;;;;;;;20.13;6.65;;;21.50;99.90;;;;;;5050258;28;20029;-59
2023/08/11 08:29:06;;;;;;;14.07;5.80;;;21.60;99.90;;;;;;5050644;28;20047;-60
2023/08/11 08:31:32;;;;;;;15.35;5.88;;;21.60;99.90;;;;;;5050977;28;20067;-58
2023/08/11 08:33:58;;;;;;;13.75;5.80;;;21.70;99.90;;;;;;5050657;28;20052;-59
2023/08/11 08:36:24;;;;;;;13.88;5.68;;;21.70;99.90;;;;;;5050661;28;20075;-59
2023/08/11 08:38:50;;;;;;;12.25;5.18;;;21.70;99.90;;;;;;5050347;28;20158;-59
2023/08/11 08:41:20;;;;;;;14.77;6.18;;;21.90;99.90;;;;;;5050303;28;20104;-59
2023/08/11 08:43:47;;;;;;;14.38;5.57;;;22.00;99.90;;;;;;5050470;28;20171;-59
2023/08/11 08:46:15;;;;;;;12.55;5.30;;;22.10;99.90;;;;;;5050380;28;20021;-60
2023/08/11 08:48:56;;;;;;;15.10;5.38;;;22.30;99.90;;;;;;5050556;28;20037;-59
2023/08/11 08:51:23;;;;;;;12.30;5.00;;;22.40;99.90;;;;;;5053064;28;20066;-59
2023/08/11 08:53:48;;;;;;;16.83;5.43;;;22.50;99.90;;;;;;5053979;28;20032;-59
2023/08/11 08:56:14;;;;;;;14.60;5.22;;;22.50;99.90;;;;;;5053590;28;20028;-59
2023/08/11 08:58:41;;;;;;;15.00;4.85;;;22.70;99.90;;;;;;5053954;28;20406;-59
2023/08/11 09:01:09;;;;;;;16.30;4.82;;;22.80;99.90;;;;;;5054347;28;20568;-59
2023/08/11 09:03:36;;;;;;;13.32;4.53;;;22.90;99.90;;;;;;5053973;28;20025;-59
2023/08/11 09:06:05;;;;;;;12.77;4.70;;;22.90;99.90;;;;;;5053717;28;20367;-59
2023/08/11 09:08:38;;;;;;;13.35;4.82;;;23.10;99.90;;;;;;5053762;28;20079;-59
2023/08/11 09:11:04;;;;;;;17.85;5.28;;;23.20;99.90;;;;;;5052211;28;20040;-60
2023/08/11 09:13:31;;;;;;;12.43;4.97;;;23.10;99.90;;;;;;5053427;28;20040;-59
2023/08/11 09:15:57;;;;;;;12.20;4.85;;;23.10;99.90;;;;;;5053957;28;20052;-59
2023/08/11 09:18:23;;;;;;;11.52;4.43;;;23.20;99.90;;;;;;5053733;28;20438;-59
2023/08/11 09:20:49;;;;;;;10.73;4.43;;;23.10;99.90;;;;;;5053530;28;20044;-60
2023/08/11 09:23:18;;;;;;;12.13;4.68;;;23.20;99.90;;;;;;5053634;28;20102;-60
2023/08/11 09:25:43;;;;;;;12.95;5.15;;;23.10;99.90;;;;;;5053298;28;20044;-59
2023/08/11 09:28:09;;;;;;;11.80;5.82;;;23.10;99.90;;;;;;5053315;28;20037;-59
2023/08/11 09:30:35;;;;;;;14.25;6.40;;;23.10;99.90;;;;;;5053385;28;20060;-60
2023/08/11 09:33:01;;;;;;;13.40;5.97;;;23.00;99.90;;;;;;5053332;28;20025;-59
2023/08/11 09:35:27;;;;;;;11.95;5.80;;;23.00;99.90;;;;;;5053628;28;20111;-59
2023/08/11 09:37:54;;;;;;;14.57;6.20;;;23.00;99.90;;;;;;5053131;28;20129;-59
2023/08/11 09:40:21;;;;;;;11.20;5.50;;;23.00;99.90;;;;;;5052695;28;20039;-59
2023/08/11 09:42:47;;;;;;;13.15;5.50;;;23.00;99.90;;;;;;5053435;28;20029;-60
2023/08/11 09:45:14;;;;;;;13.15;4.70;;;23.00;99.90;;;;;;5053216;28;20025;-59
2023/08/11 09:47:40;;;;;;;11.40;4.53;;;23.10;99.90;;;;;;5052982;28;20119;-60
2023/08/11 09:50:07;;;;;;;11.45;4.80;;;23.20;99.90;;;;;;5052813;28;20063;-59
2023/08/11 09:52:35;;;;;;;10.05;4.45;;;23.20;99.90;;;;;;5053051;28;20521;-59
2023/08/11 09:55:06;;;;;;;8.73;4.32;;;23.30;99.90;;;;;;5052519;28;20032;-59
2023/08/11 09:57:34;;;;;;;8.52;4.30;;;23.60;99.90;;;;;;5053232;28;20032;-59
2023/08/11 10:00:00;;;;;;;11.60;4.55;;;24.00;99.90;;;;;;5052792;28;20051;-59
2023/08/11 10:02:30;;;;;;;8.65;4.07;;;24.00;99.90;;;;;;5052458;28;20074;-59
2023/08/11 10:05:01;;;;;;;12.27;4.57;;;24.10;99.90;;;;;;5053174;28;20025;-59
2023/08/11 10:07:35;;;;;;;11.02;4.53;;;24.00;99.90;;;;;;5052854;28;20494;-60
2023/08/11 10:10:10;;;;;;;13.23;5.45;;;23.90;99.90;;;;;;5052316;28;20056;-59
2023/08/11 10:12:40;;;;;;;13.35;6.00;;;24.00;99.90;;;;;;5052559;28;20029;-59
2023/08/11 10:15:08;;;;;;;13.07;5.07;;;24.20;99.90;;;;;;5052695;28;20033;-59
2023/08/11 10:17:36;;;;;;;15.35;5.40;;;24.40;99.90;;;;;;5052919;28;20033;-59
2023/08/11 10:20:04;;;;;;;12.23;5.35;;;24.60;99.90;;;;;;5052200;28;20029;-59
2023/08/11 10:22:32;;;;;;;12.48;4.50;;;24.70;99.90;;;;;;5052073;28;20036;-59
2023/08/11 10:25:00;;;;;;;13.48;4.82;;;25.00;99.90;;;;;;5052083;28;20049;-59
2023/08/11 10:27:27;;;;;;;13.98;5.00;;;24.90;99.90;;;;;;5052516;28;20086;-59
2023/08/11 10:29:55;;;;;;;12.45;4.90;;;24.80;99.90;;;;;;5052202;28;20481;-59
2023/08/11 10:32:23;;;;;;;11.48;4.75;;;24.80;99.90;;;;;;5050878;28;20031;-59
2023/08/11 10:34:50;;;;;;;11.63;4.60;;;24.90;99.90;;;;;;5052013;28;20029;-60
2023/08/11 10:37:15;;;;;;;11.32;4.53;;;24.80;99.90;;;;;;5051785;28;20418;-59
2023/08/11 10:39:41;;;;;;;11.95;4.93;;;24.60;99.90;;;;;;5052335;28;20036;-59
2023/08/11 10:42:13;;;;;;;12.75;5.22;;;24.40;99.90;;;;;;5051913;28;20021;-59
2023/08/11 10:44:45;;;;;;;13.27;5.72;;;24.00;99.90;;;;;;5051964;28;20095;-59
2023/08/11 10:47:11;;;;;;;12.47;5.60;;;23.90;99.90;;;;;;5051846;28;20090;-59
2023/08/11 10:49:41;;;;;;;11.60;5.88;;;24.00;99.90;;;;;;5051728;28;20028;-59
2023/08/11 10:52:07;;;;;;;12.88;5.57;;;24.10;99.90;;;;;;5051857;28;20021;-59
2023/08/11 10:54:34;;;;;;;13.40;5.25;;;24.10;99.90;;;;;;5051919;28;20103;-59
2023/08/11 10:57:03;;;;;;;12.70;5.57;;;24.20;99.90;;;;;;5051763;28;20082;-59
2023/08/11 10:59:30;;;;;;;13.18;5.38;;;24.30;99.90;;;;;;5051657;28;20047;-59
2023/08/11 11:01:56;;;;;;;12.25;5.28;;;24.40;99.90;;;;;;5051784;28;20025;-59
2023/08/11 11:04:32;;;;;;;10.75;5.03;;;24.50;99.90;;;;;;5051497;28;20071;-59
2023/08/11 11:07:00;;;;;;;10.63;5.30;;;24.60;99.90;;;;;;5051114;28;20033;-62
2023/08/11 11:09:27;;;;;;;13.25;5.32;;;24.60;99.90;;;;;;5051431;28;20029;-62
2023/08/11 11:11:53;;;;;;;11.95;5.07;;;24.60;99.90;;;;;;5051850;28;20021;-62
2023/08/11 11:14:19;;;;;;;12.32;5.28;;;24.60;99.90;;;;;;5050779;28;20036;-61
2023/08/11 11:16:46;;;;;;;11.27;4.97;;;24.80;99.90;;;;;;5051373;28;20117;-62
2023/08/11 11:19:12;;;;;;;12.57;5.10;;;24.90;99.90;;;;;;5051217;28;20029;-62
2023/08/11 11:21:42;;;;;;;12.38;5.50;;;25.00;99.90;;;;;;5050985;28;20032;-59
2023/08/11 11:24:09;;;;;;;10.98;5.05;;;25.10;99.90;;;;;;5051064;28;20040;-59
2023/08/11 11:26:35;;;;;;;12.30;5.50;;;25.40;99.90;;;;;;5051648;28;20047;-59
2023/08/11 11:29:02;;;;;;;12.82;4.85;;;25.50;99.90;;;;;;5051098;28;20025;-62
2023/08/11 11:31:31;;;;;;;8.02;4.65;;;25.60;99.90;;;;;;5051197;28;20048;-61
2023/08/11 11:33:57;;;;;;;11.07;5.43;;;25.60;99.90;;;;;;5051216;28;20051;-62
2023/08/11 11:36:23;;;;;;;10.55;4.72;;;25.60;99.90;;;;;;5050778;28;20574;-62
2023/08/11 11:38:50;;;;;;;14.63;5.50;;;25.70;99.90;;;;;;5051460;28;20135;-62
2023/08/11 11:41:17;;;;;;;13.75;5.93;;;26.00;99.90;;;;;;5051255;28;20037;-62
2023/08/11 11:43:47;;;;;;;12.23;5.32;;;26.20;99.90;;;;;;5051214;28;20025;-62
2023/08/11 11:46:14;;;;;;;11.07;5.03;;;26.30;99.90;;;;;;5050907;28;20402;-62
2023/08/11 11:48:51;;;;;;;12.02;5.22;;;26.30;99.90;;;;;;5051427;28;20037;-62
2023/08/11 11:51:25;;;;;;;11.23;5.20;;;26.40;99.90;;;;;;5050801;28;20424;-62
2023/08/11 11:53:54;;;;;;;12.05;5.15;;;26.50;99.90;;;;;;5050994;28;20029;-61
2023/08/11 11:56:20;;;;;;;7.95;4.80;;;26.20;99.90;;;;;;5050989;28;20033;-62
2023/08/11 11:58:48;;;;;;;12.20;5.65;;;26.10;99.90;;;;;;5051250;28;20021;-62
2023/08/11 12:01:19;;;;;;;12.73;5.63;;;26.20;99.90;;;;;;5051224;28;20025;-62
2023/08/11 12:03:46;;;;;;;10.82;5.70;;;26.20;99.90;;;;;;5050728;28;20039;-62
2023/08/11 12:06:13;;;;;;;11.15;5.70;;;26.10;99.90;;;;;;5050814;28;20032;-62
2023/08/11 12:08:42;;;;;;;14.40;5.85;;;26.10;99.90;;;;;;5051088;28;20037;-60
2023/08/11 12:11:12;;;;;;;9.00;4.85;;;26.10;99.90;;;;;;5050874;28;20025;-59
2023/08/11 12:13:40;;;;;;;12.05;5.20;;;26.00;99.90;;;;;;5050651;28;20448;-59
2023/08/11 12:16:07;;;;;;;12.45;4.95;;;26.10;99.90;;;;;;5050854;28;20418;-59
2023/08/11 12:18:33;;;;;;;11.60;5.10;;;26.10;99.90;;;;;;5050392;28;20497;-59
2023/08/11 12:21:00;;;;;;;9.80;5.30;;;26.20;99.90;;;;;;5050800;28;20032;-59
2023/08/11 12:23:27;;;;;;;11.07;4.60;;;26.20;99.90;;;;;;5051187;28;20028;-60
2023/08/11 12:25:53;;;;;;;13.77;4.80;;;26.20;99.90;;;;;;5054148;28;20410;-59
2023/08/11 12:28:20;;;;;;;12.07;4.75;;;26.20;99.90;;;;;;5054386;28;20052;-59
2023/08/11 12:30:45;;;;;;;10.38;4.50;;;26.30;99.90;;;;;;5054404;28;20028;-60
2023/08/11 12:33:11;;;;;;;11.80;4.65;;;26.40;99.90;;;;;;5054258;28;20040;-59
2023/08/11 12:35:37;;;;;;;12.45;5.05;;;26.40;99.90;;;;;;5054419;28;20100;-59
2023/08/11 12:38:04;;;;;;;11.20;4.65;;;26.60;99.90;;;;;;5054273;28;20020;-59